createdAt,value
2023-01-10T00:00:39.596Z,25.88
2023-01-10T00:01:39.513Z,26.55
2023-01-10T00:02:39.610Z,26.55
2023-01-10T00:03:39.427Z,25.58
2023-01-10T00:04:39.577Z,25.79
2023-01-10T00:05:39.339Z,26.88
2023-01-10T00:55:35.023Z,25.00
2023-01-10T00:56:35.963Z,25.00
2023-01-10T00:57:35.942Z,25.00
2023-01-10T00:58:35.943Z,25.00
2023-01-10T00:59:35.899Z,25.00
2023-01-10T01:00:35.874Z,25.00
2023-01-10T01:01:36.031Z,3.50
2023-01-10T01:02:35.894Z,0.00
2023-01-10T01:03:35.795Z,0.00
2023-01-10T01:04:35.778Z,7.12
2023-01-10T01:05:35.759Z,21.55
2023-01-10T01:06:35.746Z,25.01
2023-01-10T01:07:35.716Z,25.24
2023-01-10T01:08:35.684Z,25.00
2023-01-10T01:09:35.663Z,25.00
2023-01-10T01:10:35.633Z,25.00
2023-01-10T01:11:35.649Z,25.00
2023-01-10T01:12:35.616Z,25.00
2023-01-10T01:13:35.567Z,25.00
2023-01-10T01:14:35.534Z,25.00
2023-01-10T01:15:35.549Z,25.28
2023-01-10T01:16:35.470Z,30.04
2023-01-10T01:17:35.446Z,27.92
2023-01-10T01:18:35.420Z,27.53
2023-01-10T01:19:35.377Z,25.00
2023-01-10T01:20:35.343Z,25.55
2023-01-10T01:21:35.303Z,25.55
2023-01-10T01:22:35.275Z,25.99
2023-01-10T01:23:35.241Z,26.19
2023-01-10T01:24:35.218Z,25.38
2023-01-10T01:25:35.179Z,25.13
2023-01-10T01:26:35.155Z,25.63
2023-01-10T01:27:35.185Z,25.22
2023-01-10T01:28:35.128Z,25.34
2023-01-10T01:29:42.969Z,25.27
2023-01-10T01:30:35.106Z,25.54
2023-01-10T01:31:35.047Z,25.90
2023-01-10T01:32:35.039Z,26.21
2023-01-10T01:33:35.030Z,23.94
2023-01-10T01:34:35.002Z,21.79
2023-01-10T01:35:34.958Z,25.84
2023-01-10T01:36:34.923Z,25.23
2023-01-10T01:37:34.888Z,25.00
2023-01-10T01:38:34.858Z,25.60
2023-01-10T01:39:34.836Z,25.00
2023-01-10T01:40:34.811Z,26.39
2023-01-10T01:41:34.776Z,26.19
2023-01-10T01:42:34.749Z,26.08
2023-01-10T01:43:34.745Z,27.52
2023-01-10T01:44:34.690Z,25.00
2023-01-10T01:45:34.691Z,25.96
2023-01-10T01:46:34.707Z,25.72
2023-01-10T01:47:34.617Z,25.00
2023-01-10T01:48:34.614Z,25.62
2023-01-10T01:49:34.579Z,26.59
2023-01-10T01:50:34.570Z,25.72
2023-01-10T01:51:34.537Z,25.61
2023-01-10T01:52:34.500Z,27.35
2023-01-10T01:53:34.479Z,25.29
2023-01-10T01:54:34.461Z,25.88
2023-01-10T01:55:34.481Z,25.13
2023-01-10T01:56:34.420Z,25.67
2023-01-10T01:57:34.368Z,25.93
2023-01-10T01:58:34.344Z,25.75
2023-01-10T01:59:34.349Z,26.37
2023-01-10T02:00:34.320Z,26.04
2023-01-10T02:01:34.377Z,27.59
2023-01-10T02:02:34.243Z,26.33
2023-01-10T02:03:34.213Z,25.64
2023-01-10T02:04:34.184Z,26.67
2023-01-10T02:05:34.163Z,26.22
2023-01-10T02:06:34.141Z,26.59
2023-01-10T02:07:34.104Z,26.48
2023-01-10T02:08:34.081Z,26.42
2023-01-10T02:09:34.053Z,26.71
2023-01-10T02:10:34.018Z,26.28
2023-01-10T02:11:33.994Z,26.69
2023-01-10T02:12:33.980Z,27.63
2023-01-10T02:13:33.932Z,26.51
2023-01-10T02:14:33.892Z,25.81
2023-01-10T02:15:33.891Z,26.20
2023-01-10T02:16:33.851Z,26.34
2023-01-10T02:17:33.817Z,27.43
2023-01-10T02:18:33.789Z,26.14
2023-01-10T02:19:33.766Z,27.42
2023-01-10T02:20:33.750Z,27.35
2023-01-10T02:21:33.730Z,27.28
2023-01-10T02:22:33.711Z,26.41
2023-01-10T02:23:33.699Z,26.46
2023-01-10T02:24:33.670Z,26.26
2023-01-10T02:25:33.654Z,27.65
2023-01-10T02:26:33.640Z,26.88
2023-01-10T02:27:33.617Z,25.30
2023-01-10T02:28:33.609Z,25.60
2023-01-10T02:29:33.587Z,27.19
2023-01-10T02:30:33.566Z,27.52
2023-01-10T02:31:33.683Z,26.28
2023-01-10T02:32:43.864Z,28.31
2023-01-10T02:33:33.492Z,28.66
2023-01-10T02:34:33.496Z,29.12
2023-01-10T02:35:33.446Z,29.47
2023-01-10T02:36:33.440Z,28.69
2023-01-10T02:37:33.411Z,27.95
2023-01-10T02:38:33.391Z,27.82
2023-01-10T02:39:33.376Z,28.91
2023-01-10T02:40:33.356Z,28.72
2023-01-10T02:41:33.339Z,28.39
2023-01-10T02:42:33.308Z,27.40
2023-01-10T02:43:33.281Z,26.98
2023-01-10T02:44:33.266Z,27.43
2023-01-10T02:45:33.241Z,27.03
2023-01-10T02:46:33.256Z,27.70
2023-01-10T02:47:33.212Z,27.90
2023-01-10T02:48:33.164Z,27.18
2023-01-10T02:49:33.145Z,27.61
2023-01-10T02:50:33.140Z,27.43
2023-01-10T02:51:33.111Z,29.29
2023-01-10T02:52:33.070Z,28.66
2023-01-10T02:53:33.044Z,27.85
2023-01-10T02:54:33.021Z,28.44
2023-01-10T02:55:33.000Z,27.14
2023-01-10T02:56:32.967Z,27.72
2023-01-10T02:57:32.943Z,27.79
2023-01-10T02:58:32.917Z,29.04
2023-01-10T02:59:32.891Z,27.51
2023-01-10T03:00:32.862Z,27.82
2023-01-10T03:01:32.973Z,27.88
2023-01-10T03:02:32.813Z,28.67
2023-01-10T03:03:32.816Z,28.99
2023-01-10T03:04:32.822Z,28.11
2023-01-10T03:05:32.739Z,28.04
2023-01-10T03:06:32.731Z,27.25
2023-01-10T03:07:32.688Z,28.40
2023-01-10T03:08:32.657Z,28.33
2023-01-10T03:09:34.383Z,28.07
2023-01-10T03:10:32.599Z,28.23
2023-01-10T03:11:32.567Z,28.82
2023-01-10T03:12:32.536Z,28.91
2023-01-10T03:13:32.518Z,28.42
2023-01-10T03:14:32.511Z,28.58
2023-01-10T03:15:32.480Z,28.83
2023-01-10T03:16:32.467Z,29.22
2023-01-10T03:17:32.426Z,28.26
2023-01-10T03:18:32.395Z,30.12
2023-01-10T03:19:32.388Z,28.29
2023-01-10T03:20:32.336Z,28.83
2023-01-10T03:21:32.306Z,28.96
2023-01-10T03:22:32.279Z,28.08
2023-01-10T03:23:32.244Z,28.13
2023-01-10T03:24:32.220Z,28.85
2023-01-10T03:25:32.177Z,28.40
2023-01-10T03:26:32.145Z,27.83
2023-01-10T03:27:32.124Z,28.88
2023-01-10T03:28:32.104Z,27.48
2023-01-10T03:29:32.067Z,27.19
2023-01-10T03:30:32.039Z,27.26
2023-01-10T03:31:32.120Z,28.87
2023-01-10T03:32:32.001Z,29.32
2023-01-10T03:33:31.973Z,28.80
2023-01-10T03:34:31.984Z,28.62
2023-01-10T03:35:31.948Z,28.39
2023-01-10T03:36:31.902Z,27.04
2023-01-10T03:37:31.875Z,28.03
2023-01-10T03:38:31.851Z,28.50
2023-01-10T03:39:31.845Z,29.30
2023-01-10T03:40:31.823Z,28.97
2023-01-10T03:41:31.792Z,28.54
2023-01-10T03:42:31.771Z,28.41
2023-01-10T03:43:31.744Z,28.81
2023-01-10T03:44:31.717Z,29.03
2023-01-10T03:45:31.694Z,29.20
2023-01-10T03:46:31.765Z,27.09
2023-01-10T03:47:31.628Z,27.44
2023-01-10T03:48:31.618Z,28.88
2023-01-10T03:49:31.591Z,27.78
2023-01-10T03:50:31.564Z,27.79
2023-01-10T03:51:31.583Z,28.80
2023-01-10T03:52:31.523Z,28.43
2023-01-10T03:53:31.503Z,28.53
2023-01-10T03:54:31.488Z,27.21
2023-01-10T03:55:31.460Z,28.85
2023-01-10T03:56:31.437Z,30.19
2023-01-10T03:57:31.423Z,27.73
2023-01-10T03:58:31.398Z,28.46
2023-01-10T03:59:31.373Z,29.09
2023-01-10T04:00:31.364Z,27.86
2023-01-10T04:01:31.451Z,28.64
2023-01-10T04:02:31.339Z,27.96
2023-01-10T04:03:31.282Z,28.33
2023-01-10T04:04:31.256Z,28.50
2023-01-10T04:05:31.248Z,29.13
2023-01-10T04:06:31.230Z,27.84
2023-01-10T04:07:31.229Z,27.93
2023-01-10T04:08:31.187Z,28.33
2023-01-10T04:09:31.179Z,28.37
2023-01-10T04:10:31.142Z,29.13
2023-01-10T04:11:31.124Z,29.35
2023-01-10T04:12:31.107Z,27.94
2023-01-10T04:13:31.096Z,27.07
2023-01-10T04:14:31.067Z,28.63
2023-01-10T04:15:31.029Z,27.64
2023-01-10T04:16:31.070Z,28.72
2023-01-10T04:17:31.006Z,28.80
2023-01-10T04:18:31.020Z,28.32
2023-01-10T04:19:30.970Z,28.36
2023-01-10T04:20:30.969Z,27.63
2023-01-10T04:21:30.940Z,26.58
2023-01-10T04:22:30.915Z,28.12
2023-01-10T04:23:30.929Z,27.77
2023-01-10T04:24:30.865Z,28.41
2023-01-10T04:25:31.662Z,28.56
2023-01-10T04:26:30.804Z,29.48
2023-01-10T04:27:30.776Z,28.40
2023-01-10T04:28:30.755Z,28.94
2023-01-10T04:29:30.738Z,28.18
2023-01-10T04:30:30.717Z,28.89
2023-01-10T04:31:30.814Z,28.24
2023-01-10T04:32:30.664Z,28.71
2023-01-10T04:33:30.638Z,27.77
2023-01-10T04:34:30.616Z,27.63
2023-01-10T04:35:30.605Z,28.06
2023-01-10T04:36:30.591Z,27.39
2023-01-10T04:37:30.567Z,28.35
2023-01-10T04:38:30.547Z,29.21
2023-01-10T04:39:30.543Z,27.83
2023-01-10T04:40:30.491Z,27.69
2023-01-10T04:41:30.468Z,27.22
2023-01-10T04:42:30.452Z,28.03
2023-01-10T04:43:30.441Z,27.37
2023-01-10T04:44:30.421Z,28.46
2023-01-10T04:45:30.430Z,27.89
2023-01-10T04:46:30.359Z,27.79
2023-01-10T04:47:30.341Z,27.61
2023-01-10T04:48:30.304Z,28.40
2023-01-10T04:49:30.285Z,27.24
2023-01-10T04:50:30.265Z,27.38
2023-01-10T04:51:30.245Z,27.63
2023-01-10T04:52:30.222Z,28.66
2023-01-10T04:53:30.192Z,28.03
2023-01-10T04:54:30.173Z,28.26
2023-01-10T04:55:30.165Z,27.52
2023-01-10T04:56:30.119Z,27.79
2023-01-10T04:57:30.089Z,27.50
2023-01-10T04:58:30.056Z,26.94
2023-01-10T04:59:30.023Z,27.25
2023-01-10T05:00:30.002Z,28.70
2023-01-10T05:01:30.061Z,27.64
2023-01-10T05:02:30.102Z,26.79
2023-01-10T05:03:29.927Z,27.98
2023-01-10T05:04:29.896Z,27.63
2023-01-10T05:05:29.862Z,26.95
2023-01-10T05:06:29.836Z,26.74
2023-01-10T05:07:29.806Z,25.89
2023-01-10T05:08:29.778Z,26.22
2023-01-10T05:09:29.754Z,26.71
2023-01-10T05:10:29.736Z,26.96
2023-01-10T05:11:29.735Z,27.06
2023-01-10T05:12:29.684Z,26.17
2023-01-10T05:13:29.665Z,26.78
2023-01-10T05:14:29.651Z,27.13
2023-01-10T05:15:29.613Z,27.95
2023-01-10T05:16:29.654Z,26.46
2023-01-10T05:17:29.578Z,26.97
2023-01-10T05:18:29.556Z,26.67
2023-01-10T05:19:29.562Z,26.70
2023-01-10T05:20:29.510Z,26.34
2023-01-10T05:21:29.498Z,27.02
2023-01-10T05:22:29.469Z,26.49
2023-01-10T05:23:29.474Z,26.15
2023-01-10T05:24:29.433Z,26.56
2023-01-10T05:25:29.398Z,26.22
2023-01-10T05:26:29.396Z,26.87
2023-01-10T05:27:29.384Z,25.99
2023-01-10T05:28:29.343Z,26.29
2023-01-10T05:29:29.330Z,26.07
2023-01-10T05:30:29.297Z,26.93
2023-01-10T05:31:29.313Z,27.27
2023-01-10T05:32:29.264Z,27.10
2023-01-10T05:33:29.249Z,27.46
2023-01-10T05:34:29.216Z,26.71
2023-01-10T05:35:29.191Z,26.50
2023-01-10T05:36:29.165Z,26.13
2023-01-10T05:37:29.142Z,25.58
2023-01-10T05:38:29.114Z,25.50
2023-01-10T05:39:29.107Z,25.34
2023-01-10T05:40:29.084Z,26.72
2023-01-10T05:41:29.060Z,26.49
2023-01-10T05:42:29.031Z,25.90
2023-01-10T05:43:29.034Z,26.11
2023-01-10T05:44:28.998Z,25.16
2023-01-10T05:45:28.973Z,26.85
2023-01-10T05:46:28.959Z,26.47
2023-01-10T05:47:28.938Z,27.09
2023-01-10T05:48:28.927Z,27.25
2023-01-10T05:49:28.914Z,27.30
2023-01-10T05:50:28.885Z,26.26
2023-01-10T05:51:28.877Z,26.80
2023-01-10T05:52:29.683Z,26.76
2023-01-10T05:53:28.825Z,27.03
2023-01-10T05:54:28.791Z,25.50
2023-01-10T05:55:28.774Z,26.09
2023-01-10T05:56:28.768Z,25.35
2023-01-10T05:57:28.745Z,25.69
2023-01-10T05:58:28.720Z,25.00
2023-01-10T05:59:28.899Z,27.38
2023-01-10T06:00:28.666Z,27.87
2023-01-10T06:01:28.726Z,26.62
2023-01-10T06:02:28.703Z,26.88
2023-01-10T06:03:28.612Z,27.28
2023-01-10T06:04:28.576Z,25.93
2023-01-10T06:05:28.561Z,27.33
2023-01-10T06:06:28.546Z,28.19
2023-01-10T06:07:28.516Z,27.49
2023-01-10T06:08:28.489Z,27.91
2023-01-10T06:09:28.461Z,26.67
2023-01-10T06:10:28.443Z,26.08
2023-01-10T06:11:28.420Z,26.93
2023-01-10T06:12:28.398Z,26.91
2023-01-10T06:13:28.380Z,26.87
2023-01-10T06:14:28.356Z,27.02
2023-01-10T06:15:28.343Z,26.72
2023-01-10T06:16:28.292Z,26.56
2023-01-10T06:17:28.264Z,27.68
2023-01-10T06:18:28.236Z,25.87
2023-01-10T06:19:28.224Z,25.77
2023-01-10T06:20:28.199Z,25.97
2023-01-10T06:21:28.202Z,27.21
2023-01-10T06:22:28.127Z,26.26
2023-01-10T06:23:28.113Z,27.09
2023-01-10T06:24:28.092Z,27.32
2023-01-10T06:25:28.203Z,26.45
2023-01-10T06:26:28.072Z,26.34
2023-01-10T06:27:28.034Z,26.80
2023-01-10T06:28:28.108Z,26.63
2023-01-10T06:29:27.965Z,27.67
2023-01-10T06:30:28.221Z,28.16
2023-01-10T06:31:28.048Z,27.89
2023-01-10T06:32:27.911Z,28.38
2023-01-10T06:33:27.893Z,26.37
2023-01-10T06:34:27.858Z,28.57
2023-01-10T06:35:27.856Z,27.37
2023-01-10T06:36:27.822Z,29.20
2023-01-10T06:37:28.211Z,28.83
2023-01-10T06:38:27.776Z,27.28
2023-01-10T06:39:27.747Z,28.68
2023-01-10T06:40:27.714Z,28.92
2023-01-10T06:41:27.694Z,29.58
2023-01-10T06:42:27.731Z,29.06
2023-01-10T06:43:27.644Z,31.04
2023-01-10T06:44:27.649Z,34.98
2023-01-10T06:45:27.586Z,36.13
2023-01-10T06:46:27.564Z,36.25
2023-01-10T06:47:27.737Z,36.48
2023-01-10T06:48:27.530Z,37.97
2023-01-10T06:49:27.523Z,37.30
2023-01-10T06:50:27.495Z,39.67
2023-01-10T06:51:27.500Z,42.77
2023-01-10T06:52:27.726Z,48.08
2023-01-10T06:53:27.430Z,47.72
2023-01-10T06:54:27.421Z,46.54
2023-01-10T06:55:28.451Z,48.35
2023-01-10T06:56:27.348Z,45.30
2023-01-10T06:57:27.723Z,47.13
2023-01-10T06:58:27.303Z,51.66
2023-01-10T06:59:27.268Z,60.37
2023-01-10T07:00:27.238Z,63.62
2023-01-10T07:01:27.303Z,71.63
2023-01-10T07:02:27.295Z,81.81
2023-01-10T07:03:27.296Z,81.77
2023-01-10T07:04:27.196Z,84.62
2023-01-10T07:05:27.157Z,94.99
2023-01-10T07:06:27.101Z,99.40
2023-01-10T07:07:27.116Z,102.73
2023-01-10T07:08:27.215Z,112.20
2023-01-10T07:09:27.116Z,116.08
2023-01-10T07:10:27.219Z,124.94
2023-01-10T07:11:26.974Z,129.30
2023-01-10T07:12:26.924Z,136.66
2023-01-10T07:13:26.904Z,141.96
2023-01-10T07:14:30.105Z,145.21
2023-01-10T07:15:27.213Z,145.48
2023-01-10T07:16:26.893Z,146.96
2023-01-10T07:17:26.790Z,152.53
2023-01-10T07:18:26.759Z,160.20
2023-01-10T07:19:26.747Z,173.08
2023-01-10T07:20:26.755Z,178.59
2023-01-10T07:21:26.665Z,178.60
2023-01-10T07:22:26.738Z,185.58
2023-01-10T07:23:26.610Z,187.48
2023-01-10T07:24:26.732Z,193.59
2023-01-10T07:25:26.552Z,194.43
2023-01-10T07:26:26.518Z,194.86
2023-01-10T07:27:26.726Z,197.26
2023-01-10T07:28:26.448Z,200.44
2023-01-10T07:29:26.416Z,204.31
2023-01-10T07:30:26.374Z,208.61
2023-01-10T07:31:26.456Z,207.10
2023-01-10T07:32:26.727Z,212.57
2023-01-10T07:33:26.260Z,214.39
2023-01-10T07:34:26.209Z,218.15
2023-01-10T07:35:26.222Z,216.47
2023-01-10T07:36:26.141Z,220.87
2023-01-10T07:37:26.257Z,222.49
2023-01-10T07:38:26.069Z,222.39
2023-01-10T07:39:26.028Z,225.27
2023-01-10T07:40:25.991Z,228.76
2023-01-10T07:41:25.958Z,232.04
2023-01-10T07:42:26.303Z,234.55
2023-01-10T07:43:25.923Z,235.11
2023-01-10T07:44:26.238Z,231.32
2023-01-10T07:45:25.813Z,230.22
2023-01-10T07:46:25.811Z,223.40
2023-01-10T07:47:25.736Z,120.63
2023-01-10T07:48:25.704Z,87.70
2023-01-10T07:49:26.700Z,97.84
2023-01-10T07:50:25.660Z,76.94
2023-01-10T07:51:25.696Z,70.98
2023-01-10T07:52:25.742Z,56.91
2023-01-10T07:53:25.651Z,48.05
2023-01-10T07:54:25.658Z,37.34
2023-01-10T07:55:25.661Z,24.56
2023-01-10T07:56:25.667Z,25.06
2023-01-10T07:57:25.733Z,25.00
2023-01-10T07:58:25.698Z,25.00
2023-01-10T07:59:25.702Z,23.42
2023-01-10T08:00:25.716Z,24.45
2023-01-10T08:01:25.804Z,25.25
2023-01-10T08:02:25.932Z,26.44
2023-01-10T08:03:25.932Z,25.79
2023-01-10T08:04:25.759Z,25.10
2023-01-10T08:05:25.759Z,26.32
2023-01-10T08:06:25.784Z,25.00
2023-01-10T08:07:26.264Z,25.00
2023-01-10T08:08:25.786Z,28.82
2023-01-10T08:09:26.239Z,27.36
2023-01-10T08:10:26.330Z,25.00
2023-01-10T08:11:25.807Z,27.78
2023-01-10T08:12:27.741Z,27.25
2023-01-10T08:13:25.801Z,28.68
2023-01-10T08:14:26.319Z,33.18
2023-01-10T08:15:25.797Z,38.92
2023-01-10T08:16:25.899Z,36.84
2023-01-10T08:17:25.779Z,39.24
2023-01-10T08:18:27.272Z,42.50
2023-01-10T08:19:25.761Z,52.06
2023-01-10T08:20:25.749Z,55.41
2023-01-10T08:21:25.746Z,52.98
2023-01-10T08:22:28.926Z,61.49
2023-01-10T08:23:25.683Z,61.91
2023-01-10T08:24:25.669Z,63.33
2023-01-10T08:25:25.665Z,66.87
2023-01-10T08:26:25.742Z,71.28
2023-01-10T08:27:25.626Z,76.26
2023-01-10T08:28:25.609Z,78.51
2023-01-10T08:29:25.601Z,83.90
2023-01-10T08:30:25.587Z,85.07
2023-01-10T08:31:25.878Z,83.74
2023-01-10T08:32:25.555Z,82.13
2023-01-10T08:33:25.574Z,81.77
2023-01-10T08:34:25.505Z,82.04
2023-01-10T08:35:25.489Z,82.97
2023-01-10T08:36:25.741Z,82.93
2023-01-10T08:37:25.467Z,82.86
2023-01-10T08:38:25.458Z,86.74
2023-01-10T08:39:25.814Z,89.35
2023-01-10T08:40:25.400Z,95.40
2023-01-10T08:41:25.368Z,96.44
2023-01-10T08:42:25.348Z,97.19
2023-01-10T08:43:25.317Z,101.14
2023-01-10T08:44:25.749Z,100.74
2023-01-10T08:45:25.286Z,104.14
2023-01-10T08:46:25.765Z,110.45
2023-01-10T08:47:25.247Z,101.04
2023-01-10T08:48:25.235Z,115.86
2023-01-10T08:49:25.240Z,117.75
2023-01-10T08:50:25.214Z,126.47
2023-01-10T08:51:25.262Z,123.89
2023-01-10T08:52:25.176Z,126.29
2023-01-10T08:53:25.153Z,132.81
2023-01-10T08:54:25.175Z,139.53
2023-01-10T08:55:25.121Z,136.60
2023-01-10T08:56:25.260Z,141.65
2023-01-10T08:57:25.033Z,146.33
2023-01-10T08:58:25.036Z,150.01
2023-01-10T08:59:25.016Z,155.53
2023-01-10T09:00:24.954Z,156.31
2023-01-10T09:01:25.497Z,160.44
2023-01-10T09:02:24.925Z,165.35
2023-01-10T09:03:25.372Z,170.82
2023-01-10T09:04:24.856Z,173.81
2023-01-10T09:05:28.608Z,176.00
2023-01-10T09:06:25.297Z,176.42
2023-01-10T09:07:25.034Z,177.29
2023-01-10T09:08:24.754Z,180.56
2023-01-10T09:09:24.792Z,185.79
2023-01-10T09:10:24.671Z,193.98
2023-01-10T09:11:24.650Z,198.06
2023-01-10T09:12:24.576Z,200.63
2023-01-10T09:13:24.553Z,207.09
2023-01-10T09:14:24.556Z,210.66
2023-01-10T09:15:24.528Z,214.32
2023-01-10T09:16:24.517Z,215.85
2023-01-10T09:17:24.766Z,218.63
2023-01-10T09:18:24.447Z,221.37
2023-01-10T09:19:24.765Z,224.90
2023-01-10T09:20:24.372Z,233.28
2023-01-10T09:21:24.355Z,234.15
2023-01-10T09:22:24.297Z,235.92
2023-01-10T09:23:24.257Z,236.81
2023-01-10T09:24:24.280Z,240.82
2023-01-10T09:25:24.246Z,244.69
2023-01-10T09:26:24.201Z,246.59
2023-01-10T09:27:24.142Z,247.18
2023-01-10T09:28:24.133Z,249.33
2023-01-10T09:29:24.078Z,248.63
2023-01-10T09:30:24.035Z,246.37
2023-01-10T09:31:24.126Z,247.70
2023-01-10T09:32:24.266Z,249.91
2023-01-10T09:33:24.005Z,248.05
2023-01-10T09:34:23.889Z,247.65
2023-01-10T09:35:24.273Z,250.00
2023-01-10T09:36:23.820Z,247.56
2023-01-10T09:37:23.765Z,247.13
2023-01-10T09:38:23.865Z,247.04
2023-01-10T09:39:24.654Z,249.70
2023-01-10T09:40:23.629Z,248.81
2023-01-10T09:41:23.610Z,248.51
2023-01-10T09:42:23.568Z,248.42
2023-01-10T09:43:23.801Z,247.79
2023-01-10T09:44:23.814Z,248.43
2023-01-10T09:45:23.442Z,250.00
2023-01-10T09:46:23.483Z,247.07
2023-01-10T09:47:23.505Z,250.00
2023-01-10T09:48:23.363Z,250.00
2023-01-10T09:49:23.304Z,249.05
2023-01-10T09:50:23.253Z,249.06
2023-01-10T09:51:23.243Z,247.44
2023-01-10T09:52:23.196Z,249.98
2023-01-10T09:53:23.285Z,249.31
2023-01-10T09:54:23.435Z,247.69
2023-01-10T09:55:23.088Z,241.92
2023-01-10T09:56:23.115Z,239.50
2023-01-10T09:57:23.091Z,240.76
2023-01-10T09:58:23.080Z,244.52
2023-01-10T09:59:23.655Z,245.24
2023-01-10T10:00:22.934Z,247.14
2023-01-10T10:01:22.991Z,246.40
2023-01-10T10:02:23.034Z,249.35
2023-01-10T10:03:22.894Z,247.73
2023-01-10T10:04:23.114Z,247.52
2023-01-10T10:05:22.883Z,249.48
2023-01-10T10:06:22.840Z,247.54
2023-01-10T10:07:22.811Z,250.00
2023-01-10T10:08:22.705Z,247.11
2023-01-10T10:09:22.656Z,247.73
2023-01-10T10:10:22.888Z,249.02
2023-01-10T10:11:22.588Z,247.56
2023-01-10T10:12:22.570Z,249.21
2023-01-10T10:13:27.501Z,249.49
2023-01-10T10:14:22.492Z,249.83
2023-01-10T10:15:22.783Z,250.59
2023-01-10T10:16:22.380Z,251.58
2023-01-10T10:17:22.225Z,252.56
2023-01-10T10:18:22.190Z,262.04
2023-01-10T10:19:22.172Z,248.44
2023-01-10T10:20:22.293Z,248.61
2023-01-10T10:21:22.067Z,249.95
2023-01-10T10:22:22.039Z,249.54
2023-01-10T10:23:21.999Z,250.00
2023-01-10T10:24:21.955Z,248.26
2023-01-10T10:25:22.328Z,250.00
2023-01-10T10:26:21.932Z,247.98
2023-01-10T10:27:21.945Z,248.59
2023-01-10T10:28:21.829Z,249.05
2023-01-10T10:29:21.949Z,246.12
2023-01-10T10:30:23.346Z,246.98
2023-01-10T10:31:21.975Z,242.94
2023-01-10T10:32:21.841Z,239.78
2023-01-10T10:33:21.806Z,239.71
2023-01-10T10:34:21.742Z,235.14
2023-01-10T10:35:21.885Z,232.24
2023-01-10T10:36:22.165Z,229.17
2023-01-10T10:37:21.732Z,219.20
2023-01-10T10:38:21.799Z,222.29
2023-01-10T10:39:21.590Z,216.63
2023-01-10T10:40:21.651Z,212.41
2023-01-10T10:41:21.490Z,209.49
2023-01-10T10:42:21.439Z,209.34
2023-01-10T10:43:22.054Z,209.53
2023-01-10T10:44:21.383Z,209.54
2023-01-10T10:45:23.432Z,205.78
2023-01-10T10:46:21.304Z,205.93
2023-01-10T10:47:21.257Z,206.11
2023-01-10T10:48:21.311Z,205.50
2023-01-10T10:49:21.188Z,210.70
2023-01-10T10:50:21.144Z,240.62
2023-01-10T10:51:21.182Z,237.83
2023-01-10T10:52:21.313Z,232.28
2023-01-10T10:53:21.008Z,230.27
2023-01-10T10:54:20.978Z,227.89
2023-01-10T10:55:20.953Z,228.00
2023-01-10T10:56:20.935Z,224.04
2023-01-10T10:57:20.890Z,188.53
2023-01-10T10:58:20.887Z,298.50
2023-01-10T10:59:20.886Z,206.30
2023-01-10T11:00:20.819Z,198.26
2023-01-10T11:01:20.991Z,180.26
2023-01-10T11:02:20.802Z,184.95
2023-01-10T11:03:20.744Z,190.23
2023-01-10T11:04:20.732Z,188.21
2023-01-10T11:05:20.959Z,187.39
2023-01-10T11:06:20.698Z,186.40
2023-01-10T11:07:20.805Z,184.41
2023-01-10T11:08:20.621Z,183.11
2023-01-10T11:09:20.583Z,181.79
2023-01-10T11:10:20.552Z,181.18
2023-01-10T11:11:20.525Z,180.72
2023-01-10T11:12:20.804Z,181.25
2023-01-10T11:13:20.455Z,180.64
2023-01-10T11:14:20.420Z,178.98
2023-01-10T11:15:20.400Z,194.24
2023-01-10T11:16:20.399Z,188.29
2023-01-10T11:17:20.317Z,176.70
2023-01-10T11:18:20.307Z,124.05
2023-01-10T11:19:20.267Z,125.72
2023-01-10T11:20:20.364Z,81.34
2023-01-10T11:21:22.093Z,77.94
2023-01-10T11:22:20.207Z,78.06
2023-01-10T11:23:20.195Z,75.41
2023-01-10T11:24:20.185Z,55.25
2023-01-10T11:25:20.407Z,70.10
2023-01-10T11:26:20.167Z,68.44
2023-01-10T11:27:20.178Z,64.21
2023-01-10T11:28:20.147Z,64.47
2023-01-10T11:29:20.127Z,71.82
2023-01-10T11:30:20.336Z,78.14
2023-01-10T11:31:20.349Z,81.03
2023-01-10T11:32:20.111Z,84.34
2023-01-10T11:33:20.601Z,88.15
2023-01-10T11:34:20.349Z,90.93
2023-01-10T11:35:20.171Z,96.70
2023-01-10T11:36:20.038Z,100.17
2023-01-10T11:37:20.317Z,103.94
2023-01-10T11:38:19.987Z,107.67
2023-01-10T11:39:20.315Z,113.89
2023-01-10T11:40:19.926Z,115.45
2023-01-10T11:41:19.905Z,121.37
2023-01-10T11:42:19.903Z,125.64
2023-01-10T11:43:20.270Z,132.06
2023-01-10T11:44:20.818Z,135.89
2023-01-10T11:45:20.836Z,137.44
2023-01-10T11:46:19.853Z,139.19
2023-01-10T11:47:19.704Z,142.79
2023-01-10T11:48:20.280Z,145.42
2023-01-10T11:49:19.856Z,147.26
2023-01-10T11:50:19.777Z,147.08
2023-01-10T11:51:19.567Z,150.62
2023-01-10T11:52:19.840Z,152.51
2023-01-10T11:53:19.502Z,155.19
2023-01-10T11:54:19.455Z,157.08
2023-01-10T11:55:19.491Z,159.47
2023-01-10T11:56:19.391Z,160.88
2023-01-10T11:57:19.825Z,160.72
2023-01-10T11:58:19.330Z,162.92
2023-01-10T11:59:19.295Z,165.70
2023-01-10T12:00:19.292Z,167.03
2023-01-10T12:01:19.280Z,169.86
2023-01-10T12:02:19.364Z,169.66
2023-01-10T12:03:19.204Z,172.71
2023-01-10T12:04:19.154Z,176.19
2023-01-10T12:05:19.196Z,175.24
2023-01-10T12:06:19.092Z,177.95
2023-01-10T12:07:19.323Z,178.70
2023-01-10T12:08:18.988Z,179.67
2023-01-10T12:09:19.327Z,182.20
2023-01-10T12:10:21.011Z,183.78
2023-01-10T12:11:18.879Z,187.40
2023-01-10T12:12:19.325Z,186.93
2023-01-10T12:13:18.801Z,190.28
2023-01-10T12:14:19.066Z,189.36
2023-01-10T12:15:18.721Z,188.98
2023-01-10T12:16:18.787Z,183.88
2023-01-10T12:17:18.831Z,174.24
2023-01-10T12:18:18.621Z,158.44
2023-01-10T12:19:18.619Z,132.70
2023-01-10T12:20:18.561Z,122.04
2023-01-10T12:21:18.547Z,118.21
2023-01-10T12:22:18.855Z,115.91
2023-01-10T12:23:18.503Z,109.43
2023-01-10T12:24:18.468Z,143.93
2023-01-10T12:25:18.450Z,158.13
2023-01-10T12:26:18.409Z,150.07
2023-01-10T12:27:18.834Z,141.07
2023-01-10T12:28:18.358Z,135.60
2023-01-10T12:29:18.314Z,138.84
2023-01-10T12:30:18.287Z,141.96
2023-01-10T12:31:18.335Z,143.13
2023-01-10T12:32:18.225Z,144.59
2023-01-10T12:33:18.335Z,146.46
2023-01-10T12:34:18.141Z,145.22
2023-01-10T12:35:18.103Z,149.21
2023-01-10T12:36:18.065Z,151.50
2023-01-10T12:37:18.029Z,154.71
2023-01-10T12:38:18.364Z,155.67
2023-01-10T12:39:17.961Z,155.93
2023-01-10T12:40:17.932Z,159.83
2023-01-10T12:41:17.897Z,161.00
2023-01-10T12:42:17.864Z,164.33
2023-01-10T12:43:17.874Z,164.15
2023-01-10T12:44:18.341Z,166.06
2023-01-10T12:45:18.099Z,167.28
2023-01-10T12:46:33.625Z,170.16
2023-01-10T12:47:17.955Z,170.44
2023-01-10T12:48:17.861Z,171.65
2023-01-10T12:49:17.600Z,173.34
2023-01-10T12:50:17.530Z,174.62
2023-01-10T12:51:17.489Z,176.82
2023-01-10T12:52:17.462Z,176.28
2023-01-10T12:53:17.931Z,178.46
2023-01-10T12:54:17.386Z,178.34
2023-01-10T12:55:17.457Z,177.00
2023-01-10T12:56:17.320Z,175.64
2023-01-10T12:57:17.253Z,171.49
2023-01-10T12:58:17.344Z,170.84
2023-01-10T12:59:23.749Z,168.55
2023-01-10T13:00:17.148Z,168.77
2023-01-10T13:01:17.274Z,169.15
2023-01-10T13:02:17.149Z,166.37
2023-01-10T13:03:17.354Z,165.32
2023-01-10T13:04:16.983Z,165.29
2023-01-10T13:05:16.989Z,162.88
2023-01-10T13:06:16.915Z,162.84
2023-01-10T13:07:16.870Z,162.84
2023-01-10T13:08:17.258Z,162.87
2023-01-10T13:09:17.322Z,162.15
2023-01-10T13:10:16.786Z,159.80
2023-01-10T13:11:16.730Z,160.17
2023-01-10T13:12:16.680Z,159.48
2023-01-10T13:13:16.852Z,157.28
2023-01-10T13:14:16.640Z,157.03
2023-01-10T13:15:16.593Z,156.11
2023-01-10T13:16:16.560Z,156.44
2023-01-10T13:17:16.533Z,156.38
2023-01-10T13:18:16.856Z,154.75
2023-01-10T13:19:16.855Z,155.58
2023-01-10T13:20:16.429Z,155.21
2023-01-10T13:21:16.397Z,154.99
2023-01-10T13:22:16.363Z,153.53
2023-01-10T13:23:16.332Z,151.24
2023-01-10T13:24:16.355Z,151.34
2023-01-10T13:25:16.378Z,151.07
2023-01-10T13:26:16.379Z,151.95
2023-01-10T13:27:16.177Z,150.42
2023-01-10T13:28:16.238Z,151.63
2023-01-10T13:29:16.357Z,148.61
2023-01-10T13:30:16.089Z,147.52
2023-01-10T13:31:16.458Z,146.53